الصفحة الرئيسية
METAR-TAF:

METAR-TAF

مطار :

مطار جيبوتي الدولي

جيبوتي, جيبوتي

دائرة عرض: 11-33N, خط طول: 043-10E, ارتفاع: 49 متر

مراقبة الطقس الحالي

تاريخ ووقت الإصدار 2ساعات و 22 دقيقة قبل الساعة 20:00UTC
ريح 4 عقدة من الجنوب الشرقي
درجة الحرارة 30°درجة مئوية
الرطوبة 84%
ضغط 1011 hPa
الرؤية 10 كم أو أكثر
غيوم مفككة على ارتفاع 2300 قدم

METAR: HDAM 222000Z 14004KT 9999 BKN023 30/27 Q1011

زمن: 01:22 (22:22 UTC)

توقعات

تاريخ ووقت الإصدار 5ساعات و 22 دقيقة قبل الساعة 17:00UTC
التوقعات صالحة من22 الساعة 18 UTC إلى 23 الساعة 18 UTC
ريح 3 عقدةمن اتجاهات متغيرة
الرؤية 10 كم أو أكثر
غيوم متفرقة على ارتفاع 2000 قدم
أصبح
من 23 الساعة 06 UTC إلى 23 الساعة 12 UTC
ريح 10 عقدة من الشرق
غيوم متفرقة على ارتفاع 2300 قدم

TAF: HDAM 221700Z 2218/2318 VRB03KT 9999 SCT020 BECMG 2306/2312 08010KT SCT023

أرصاد الطقس والتوقعات من أكثر من 4000 مطار (تقارير الطقس للمطار METAR والتنبؤ بالطقس بالمطارTAF).

المحطات المتاحة هي النقط الصفراء والحمراء على الخريطة.

حرك المؤشر فوق النقطة لمعرفة اسم المحطة.

ثم انقر لمعرفة أرصاد وتوقعات الطقس.

لتغيير الخارطة: اضغط على الأزرار الخضراء مع رمز الصليب الأسود للتكبير. على الزر الأخضر مع شرطة للتصغير، أو على الأسهم الخضراء للخرائط المجاورة.


METAR-TAF: